Plevna, Missouri
Current Conditions -  °F | °C
As of 8:55 AM on Monday 24 Nov 2014 (Local Time) from KIRK Reporting Station
Overcast Overcast  
Wind Chill: 21°   Ceiling: 2900
Heat Index: 31°   Visibility: 10mi
Dew Point: 23°   Wind: 14mph
Humidity: 72%   Direction: 280°W
Pressure: 29.56"   Gusts: 24mph
Location:  39.97°N, 92.09°W
Report Text: KIRK 241455Z AUTO 28012G21KT 10SM OVC029 M01/M05 A2956 RMK AO2 PK WND 31027/1413 SLP019 T10061050 51037
Loading
Personal Weather Stations






























Interactive Weather Map New forecast layout! Learn more

10-Day Weather Forecast

Advertisements
Track Severe Weather on mobile